Terminal Aerodrome Forecast
Issued by NWS Albany, NY

Home | Current Version | Previous Version | Text Only | Print | Product List | Glossary On
Versions: 1 2 3 4 5 6 7 8 9 10 11 12 13 14 15 16 17 18 19 20 21 22 23 24 25 26 27 28
454
FTUS41 KALY 060532
TAFPOU
TAF
KPOU 060532Z 0606/0706 VRB02KT P6SM SKC
     FM061400 22004KT P6SM FEW050
     FM061700 23007KT P6SM SCT050 SCT100
     FM062300 VRB02KT P6SM SCT100=

USA.gov is the U.S. government's official web portal to all federal, state and local government web resources and services.